sensor_id;sensor_type;location;lat;lon;timestamp;pressure;altitude;pressure_sealevel;temperature;humidity
36630;BME280;36256;42.154;23.002;2023-03-22T00:02:06;96742.38;;;11.47;100.00
36630;BME280;36256;42.154;23.002;2023-03-22T00:04:33;96738.50;;;11.44;100.00
36630;BME280;36256;42.154;23.002;2023-03-22T00:06:59;96738.38;;;11.30;100.00
36630;BME280;36256;42.154;23.002;2023-03-22T00:09:26;96732.78;;;11.30;100.00
36630;BME280;36256;42.154;23.002;2023-03-22T00:11:52;96734.31;;;11.31;100.00
36630;BME280;36256;42.154;23.002;2023-03-22T00:14:19;96730.28;;;11.32;100.00
36630;BME280;36256;42.154;23.002;2023-03-22T00:16:46;96728.41;;;11.20;100.00
36630;BME280;36256;42.154;23.002;2023-03-22T00:19:14;96732.19;;;11.07;100.00
36630;BME280;36256;42.154;23.002;2023-03-22T00:21:43;96725.66;;;11.11;100.00
36630;BME280;36256;42.154;23.002;2023-03-22T00:24:10;96728.59;;;11.16;100.00
36630;BME280;36256;42.154;23.002;2023-03-22T00:26:36;96730.91;;;11.18;100.00
36630;BME280;36256;42.154;23.002;2023-03-22T00:29:03;96729.81;;;11.24;100.00
36630;BME280;36256;42.154;23.002;2023-03-22T00:31:30;96730.41;;;11.28;100.00
36630;BME280;36256;42.154;23.002;2023-03-22T00:33:57;96729.31;;;11.35;100.00
36630;BME280;36256;42.154;23.002;2023-03-22T00:36:23;96730.88;;;11.36;100.00
36630;BME280;36256;42.154;23.002;2023-03-22T00:38:50;96730.09;;;11.35;100.00
36630;BME280;36256;42.154;23.002;2023-03-22T00:41:21;96735.53;;;11.39;100.00
36630;BME280;36256;42.154;23.002;2023-03-22T00:43:50;96737.09;;;11.40;100.00
36630;BME280;36256;42.154;23.002;2023-03-22T00:46:18;96730.53;;;11.43;100.00
36630;BME280;36256;42.154;23.002;2023-03-22T00:48:46;96722.75;;;11.38;100.00
36630;BME280;36256;42.154;23.002;2023-03-22T00:51:13;96709.06;;;11.22;100.00
36630;BME280;36256;42.154;23.002;2023-03-22T00:53:40;96721.66;;;11.35;100.00
36630;BME280;36256;42.154;23.002;2023-03-22T00:56:10;96720.91;;;11.26;100.00
36630;BME280;36256;42.154;23.002;2023-03-22T00:58:40;96716.06;;;11.26;100.00
36630;BME280;36256;42.154;23.002;2023-03-22T01:01:07;96723.41;;;11.24;100.00
36630;BME280;36256;42.154;23.002;2023-03-22T01:03:33;96724.03;;;11.28;100.00
36630;BME280;36256;42.154;23.002;2023-03-22T01:06:00;96719.03;;;11.32;100.00
36630;BME280;36256;42.154;23.002;2023-03-22T01:08:27;96720.75;;;11.29;100.00
36630;BME280;36256;42.154;23.002;2023-03-22T01:10:59;96712.34;;;11.20;100.00
36630;BME280;36256;42.154;23.002;2023-03-22T01:13:26;96705.63;;;11.27;100.00
36630;BME280;36256;42.154;23.002;2023-03-22T01:15:54;96691.00;;;11.14;100.00
36630;BME280;36256;42.154;23.002;2023-03-22T01:18:21;96701.91;;;11.21;100.00
36630;BME280;36256;42.154;23.002;2023-03-22T01:20:48;96703.13;;;11.20;100.00
36630;BME280;36256;42.154;23.002;2023-03-22T01:23:14;96705.34;;;11.16;100.00
36630;BME280;36256;42.154;23.002;2023-03-22T01:25:42;96696.94;;;11.07;100.00
36630;BME280;36256;42.154;23.002;2023-03-22T01:28:08;96696.31;;;11.02;100.00
36630;BME280;36256;42.154;23.002;2023-03-22T01:30:38;96710.94;;;11.16;100.00
36630;BME280;36256;42.154;23.002;2023-03-22T01:33:05;96703.47;;;11.13;100.00
36630;BME280;36256;42.154;23.002;2023-03-22T01:35:33;96708.44;;;11.18;100.00
36630;BME280;36256;42.154;23.002;2023-03-22T01:38:00;96709.09;;;11.13;100.00
36630;BME280;36256;42.154;23.002;2023-03-22T01:40:26;96715.34;;;11.17;100.00
36630;BME280;36256;42.154;23.002;2023-03-22T01:42:54;96710.00;;;11.19;100.00
36630;BME280;36256;42.154;23.002;2023-03-22T01:45:36;96709.53;;;11.20;100.00
36630;BME280;36256;42.154;23.002;2023-03-22T01:50:50;96712.06;;;11.09;100.00
36630;BME280;36256;42.154;23.002;2023-03-22T01:53:23;96713.44;;;11.14;100.00
36630;BME280;36256;42.154;23.002;2023-03-22T01:55:52;96710.94;;;11.16;100.00
36630;BME280;36256;42.154;23.002;2023-03-22T01:58:19;96713.31;;;11.17;100.00
36630;BME280;36256;42.154;23.002;2023-03-22T02:00:46;96722.47;;;11.18;100.00
36630;BME280;36256;42.154;23.002;2023-03-22T02:03:18;96724.06;;;11.19;100.00
36630;BME280;36256;42.154;23.002;2023-03-22T02:05:50;96727.00;;;11.15;100.00
36630;BME280;36256;42.154;23.002;2023-03-22T02:08:17;96726.88;;;11.19;100.00
36630;BME280;36256;42.154;23.002;2023-03-22T02:10:44;96729.19;;;11.20;100.00
36630;BME280;36256;42.154;23.002;2023-03-22T02:13:26;96710.31;;;11.21;100.00
36630;BME280;36256;42.154;23.002;2023-03-22T02:16:20;96734.03;;;11.20;100.00
36630;BME280;36256;42.154;23.002;2023-03-22T02:22:22;96735.41;;;11.24;100.00
36630;BME280;36256;42.154;23.002;2023-03-22T02:33:22;96744.31;;;11.23;100.00
36630;BME280;36256;42.154;23.002;2023-03-22T02:41:21;96753.84;;;11.25;100.00
36630;BME280;36256;42.154;23.002;2023-03-22T02:44:13;96754.59;;;11.26;100.00
36630;BME280;36256;42.154;23.002;2023-03-22T02:46:47;96760.38;;;11.22;100.00
36630;BME280;36256;42.154;23.002;2023-03-22T02:58:03;96764.78;;;11.14;100.00
36630;BME280;36256;42.154;23.002;2023-03-22T03:00:32;96757.59;;;11.13;100.00
36630;BME280;36256;42.154;23.002;2023-03-22T03:03:06;96761.50;;;11.16;100.00
36630;BME280;36256;42.154;23.002;2023-03-22T03:05:42;96766.31;;;11.15;100.00
36630;BME280;36256;42.154;23.002;2023-03-22T03:08:11;96762.16;;;10.92;100.00
36630;BME280;36256;42.154;23.002;2023-03-22T03:10:40;96762.78;;;10.87;100.00
36630;BME280;36256;42.154;23.002;2023-03-22T03:13:17;96756.41;;;10.87;100.00
36630;BME280;36256;42.154;23.002;2023-03-22T03:15:47;96768.72;;;10.89;100.00
36630;BME280;36256;42.154;23.002;2023-03-22T03:18:38;96773.84;;;10.91;100.00
36630;BME280;36256;42.154;23.002;2023-03-22T03:21:30;96778.84;;;10.87;100.00
36630;BME280;36256;42.154;23.002;2023-03-22T03:24:13;96774.63;;;10.82;100.00
36630;BME280;36256;42.154;23.002;2023-03-22T03:29:42;96785.06;;;10.73;100.00
36630;BME280;36256;42.154;23.002;2023-03-22T03:32:30;96788.69;;;10.64;100.00
36630;BME280;36256;42.154;23.002;2023-03-22T03:35:06;96784.16;;;10.58;100.00
36630;BME280;36256;42.154;23.002;2023-03-22T03:37:38;96791.13;;;10.62;100.00
36630;BME280;36256;42.154;23.002;2023-03-22T03:40:14;96783.81;;;10.65;100.00
36630;BME280;36256;42.154;23.002;2023-03-22T03:42:47;96787.72;;;10.67;100.00
36630;BME280;36256;42.154;23.002;2023-03-22T03:45:17;96790.84;;;10.51;100.00
36630;BME280;36256;42.154;23.002;2023-03-22T03:47:45;96784.75;;;10.53;100.00
36630;BME280;36256;42.154;23.002;2023-03-22T03:50:15;96798.00;;;10.52;100.00
36630;BME280;36256;42.154;23.002;2023-03-22T03:52:42;96802.38;;;10.53;100.00
36630;BME280;36256;42.154;23.002;2023-03-22T03:55:08;96804.38;;;10.53;100.00
36630;BME280;36256;42.154;23.002;2023-03-22T03:57:35;96809.53;;;10.45;100.00
36630;BME280;36256;42.154;23.002;2023-03-22T04:00:02;96802.50;;;10.41;100.00
36630;BME280;36256;42.154;23.002;2023-03-22T04:02:29;96810.44;;;10.42;100.00
36630;BME280;36256;42.154;23.002;2023-03-22T04:04:56;96805.13;;;10.35;100.00
36630;BME280;36256;42.154;23.002;2023-03-22T04:07:22;96812.34;;;10.45;100.00
36630;BME280;36256;42.154;23.002;2023-03-22T04:09:49;96819.34;;;10.50;100.00
36630;BME280;36256;42.154;23.002;2023-03-22T04:12:16;96810.78;;;10.53;100.00
36630;BME280;36256;42.154;23.002;2023-03-22T04:14:42;96815.00;;;10.49;100.00
36630;BME280;36256;42.154;23.002;2023-03-22T04:17:10;96823.88;;;10.47;100.00
36630;BME280;36256;42.154;23.002;2023-03-22T04:19:36;96819.50;;;10.46;100.00
36630;BME280;36256;42.154;23.002;2023-03-22T04:22:03;96819.19;;;10.44;100.00
36630;BME280;36256;42.154;23.002;2023-03-22T04:24:29;96818.41;;;10.44;100.00
36630;BME280;36256;42.154;23.002;2023-03-22T04:26:56;96823.84;;;10.38;100.00
36630;BME280;36256;42.154;23.002;2023-03-22T04:29:22;96823.53;;;10.36;100.00
36630;BME280;36256;42.154;23.002;2023-03-22T04:31:49;96827.13;;;10.37;100.00
36630;BME280;36256;42.154;23.002;2023-03-22T04:34:18;96830.06;;;10.33;100.00
36630;BME280;36256;42.154;23.002;2023-03-22T04:36:44;96833.16;;;10.26;100.00
36630;BME280;36256;42.154;23.002;2023-03-22T04:39:12;96834.03;;;10.14;100.00
36630;BME280;36256;42.154;23.002;2023-03-22T04:41:39;96834.69;;;10.18;100.00
36630;BME280;36256;42.154;23.002;2023-03-22T04:44:06;96834.88;;;10.23;100.00
36630;BME280;36256;42.154;23.002;2023-03-22T04:46:33;96829.88;;;10.18;100.00
36630;BME280;36256;42.154;23.002;2023-03-22T04:49:00;96838.44;;;10.15;100.00
36630;BME280;36256;42.154;23.002;2023-03-22T04:51:27;96839.38;;;10.21;100.00
36630;BME280;36256;42.154;23.002;2023-03-22T04:53:54;96836.56;;;10.21;100.00
36630;BME280;36256;42.154;23.002;2023-03-22T04:56:21;96839.22;;;10.24;100.00
36630;BME280;36256;42.154;23.002;2023-03-22T04:58:47;96835.63;;;10.15;100.00
36630;BME280;36256;42.154;23.002;2023-03-22T05:01:16;96849.81;;;10.20;100.00
36630;BME280;36256;42.154;23.002;2023-03-22T05:03:44;96851.84;;;10.29;100.00
36630;BME280;36256;42.154;23.002;2023-03-22T05:06:14;96847.66;;;10.34;100.00
36630;BME280;36256;42.154;23.002;2023-03-22T05:08:41;96844.56;;;10.32;100.00
36630;BME280;36256;42.154;23.002;2023-03-22T05:11:11;96851.25;;;10.34;100.00
36630;BME280;36256;42.154;23.002;2023-03-22T05:13:39;96867.47;;;10.39;100.00
36630;BME280;36256;42.154;23.002;2023-03-22T05:16:06;96855.03;;;10.49;100.00
36630;BME280;36256;42.154;23.002;2023-03-22T05:18:33;96863.31;;;10.62;100.00
36630;BME280;36256;42.154;23.002;2023-03-22T05:21:00;96862.09;;;10.72;100.00
36630;BME280;36256;42.154;23.002;2023-03-22T05:23:29;96862.25;;;10.68;100.00
36630;BME280;36256;42.154;23.002;2023-03-22T05:25:55;96864.72;;;10.75;100.00
36630;BME280;36256;42.154;23.002;2023-03-22T05:28:23;96867.09;;;10.77;100.00
36630;BME280;36256;42.154;23.002;2023-03-22T05:30:52;96871.28;;;10.81;100.00
36630;BME280;36256;42.154;23.002;2023-03-22T05:33:22;96869.13;;;10.76;100.00
36630;BME280;36256;42.154;23.002;2023-03-22T05:35:48;96867.72;;;10.81;100.00
36630;BME280;36256;42.154;23.002;2023-03-22T05:38:16;96874.41;;;10.83;100.00
36630;BME280;36256;42.154;23.002;2023-03-22T05:40:43;96874.41;;;10.83;100.00
36630;BME280;36256;42.154;23.002;2023-03-22T05:43:10;96874.28;;;10.87;100.00
36630;BME280;36256;42.154;23.002;2023-03-22T05:45:37;96873.78;;;10.79;100.00
36630;BME280;36256;42.154;23.002;2023-03-22T05:48:04;96878.63;;;10.88;100.00
36630;BME280;36256;42.154;23.002;2023-03-22T05:50:32;96881.31;;;10.91;100.00
36630;BME280;36256;42.154;23.002;2023-03-22T05:52:58;96879.56;;;10.94;100.00
36630;BME280;36256;42.154;23.002;2023-03-22T05:55:25;96876.31;;;10.95;100.00
36630;BME280;36256;42.154;23.002;2023-03-22T05:57:52;96875.06;;;11.05;100.00
36630;BME280;36256;42.154;23.002;2023-03-22T06:00:20;96868.19;;;11.16;100.00
36630;BME280;36256;42.154;23.002;2023-03-22T06:02:48;96873.81;;;11.16;100.00
36630;BME280;36256;42.154;23.002;2023-03-22T06:05:15;96879.13;;;11.23;100.00
36630;BME280;36256;42.154;23.002;2023-03-22T06:07:43;96876.94;;;11.27;100.00
36630;BME280;36256;42.154;23.002;2023-03-22T06:10:11;96873.50;;;11.23;100.00
36630;BME280;36256;42.154;23.002;2023-03-22T06:12:38;96879.13;;;11.23;100.00
36630;BME280;36256;42.154;23.002;2023-03-22T06:15:05;96875.06;;;11.24;100.00
36630;BME280;36256;42.154;23.002;2023-03-22T06:17:32;96886.59;;;11.35;100.00
36630;BME280;36256;42.154;23.002;2023-03-22T06:19:59;96892.38;;;11.13;100.00
36630;BME280;36256;42.154;23.002;2023-03-22T06:22:25;96886.94;;;11.19;100.00
36630;BME280;36256;42.154;23.002;2023-03-22T06:24:52;96887.56;;;11.23;100.00
36630;BME280;36256;42.154;23.002;2023-03-22T06:27:18;96886.00;;;11.13;100.00
36630;BME280;36256;42.154;23.002;2023-03-22T06:29:45;96892.22;;;11.17;100.00
36630;BME280;36256;42.154;23.002;2023-03-22T06:32:17;96885.38;;;11.27;100.00
36630;BME280;36256;42.154;23.002;2023-03-22T06:34:44;96893.78;;;11.36;100.00
36630;BME280;36256;42.154;23.002;2023-03-22T06:37:11;96894.09;;;11.38;100.00
36630;BME280;36256;42.154;23.002;2023-03-22T06:39:37;96904.22;;;11.53;100.00
36630;BME280;36256;42.154;23.002;2023-03-22T06:42:04;96899.38;;;11.54;100.00
36630;BME280;36256;42.154;23.002;2023-03-22T06:44:30;96898.47;;;11.48;100.00
36630;BME280;36256;42.154;23.002;2023-03-22T06:46:57;96910.63;;;11.54;100.00
36630;BME280;36256;42.154;23.002;2023-03-22T06:49:24;96912.03;;;11.49;100.00
36630;BME280;36256;42.154;23.002;2023-03-22T06:51:51;96907.81;;;11.54;100.00
36630;BME280;36256;42.154;23.002;2023-03-22T06:54:18;96893.28;;;11.55;100.00
36630;BME280;36256;42.154;23.002;2023-03-22T06:56:45;96895.16;;;11.58;100.00
36630;BME280;36256;42.154;23.002;2023-03-22T06:59:11;96899.06;;;11.61;100.00
36630;BME280;36256;42.154;23.002;2023-03-22T07:01:38;96897.50;;;11.78;100.00
36630;BME280;36256;42.154;23.002;2023-03-22T07:04:04;96901.56;;;11.86;99.76
36630;BME280;36256;42.154;23.002;2023-03-22T07:06:31;96906.81;;;12.02;99.93
36630;BME280;36256;42.154;23.002;2023-03-22T07:08:58;96912.59;;;12.49;98.31
36630;BME280;36256;42.154;23.002;2023-03-22T07:11:25;96908.81;;;13.32;94.24
36630;BME280;36256;42.154;23.002;2023-03-22T07:13:53;96908.59;;;13.74;90.05
36630;BME280;36256;42.154;23.002;2023-03-22T07:16:20;96914.44;;;14.14;88.11
36630;BME280;36256;42.154;23.002;2023-03-22T07:18:47;96918.09;;;14.30;85.61
36630;BME280;36256;42.154;23.002;2023-03-22T07:21:14;96910.31;;;14.74;83.02
36630;BME280;36256;42.154;23.002;2023-03-22T07:23:41;96916.84;;;14.65;81.69
36630;BME280;36256;42.154;23.002;2023-03-22T07:26:08;96917.50;;;14.75;80.25
36630;BME280;36256;42.154;23.002;2023-03-22T07:28:34;96921.00;;;14.70;81.55
36630;BME280;36256;42.154;23.002;2023-03-22T07:31:05;96925.13;;;14.69;81.24
36630;BME280;36256;42.154;23.002;2023-03-22T07:33:35;96924.97;;;14.43;81.29
36630;BME280;36256;42.154;23.002;2023-03-22T07:36:02;96929.00;;;14.71;82.37
36630;BME280;36256;42.154;23.002;2023-03-22T07:38:28;96932.81;;;15.03;77.76
36630;BME280;36256;42.154;23.002;2023-03-22T07:40:55;96941.19;;;14.98;78.10
36630;BME280;36256;42.154;23.002;2023-03-22T07:43:21;96945.78;;;14.46;80.67
36630;BME280;36256;42.154;23.002;2023-03-22T07:45:49;96933.81;;;14.51;81.96
36630;BME280;36256;42.154;23.002;2023-03-22T07:48:17;96917.94;;;14.09;83.15
36630;BME280;36256;42.154;23.002;2023-03-22T07:50:46;96931.84;;;13.98;83.28
36630;BME280;36256;42.154;23.002;2023-03-22T07:53:12;96946.91;;;13.81;85.43
36630;BME280;36256;42.154;23.002;2023-03-22T07:55:40;96942.66;;;13.85;85.51
36630;BME280;36256;42.154;23.002;2023-03-22T07:58:09;96947.50;;;13.85;84.59
36630;BME280;36256;42.154;23.002;2023-03-22T08:00:36;96948.16;;;13.65;84.60
36630;BME280;36256;42.154;23.002;2023-03-22T08:03:03;96953.41;;;13.58;86.61
36630;BME280;36256;42.154;23.002;2023-03-22T08:05:30;96952.97;;;13.50;88.46
36630;BME280;36256;42.154;23.002;2023-03-22T08:07:56;96947.47;;;13.32;88.97
36630;BME280;36256;42.154;23.002;2023-03-22T08:10:23;96946.16;;;13.18;89.07
36630;BME280;36256;42.154;23.002;2023-03-22T08:12:49;96942.50;;;13.27;89.53
36630;BME280;36256;42.154;23.002;2023-03-22T08:15:16;96946.22;;;13.33;88.83
36630;BME280;36256;42.154;23.002;2023-03-22T08:17:43;96940.81;;;13.44;87.74
36630;BME280;36256;42.154;23.002;2023-03-22T08:20:10;96939.16;;;14.05;84.89
36630;BME280;36256;42.154;23.002;2023-03-22T08:22:38;96937.72;;;14.39;81.33
36630;BME280;36256;42.154;23.002;2023-03-22T08:25:05;96939.91;;;14.64;82.76
36630;BME280;36256;42.154;23.002;2023-03-22T08:27:32;96929.66;;;15.16;78.55
36630;BME280;36256;42.154;23.002;2023-03-22T08:29:59;96927.19;;;15.63;74.75
36630;BME280;36256;42.154;23.002;2023-03-22T08:32:26;96936.69;;;15.60;73.87
36630;BME280;36256;42.154;23.002;2023-03-22T08:34:52;96945.81;;;15.15;75.24
36630;BME280;36256;42.154;23.002;2023-03-22T08:37:19;96928.47;;;14.87;76.24
36630;BME280;36256;42.154;23.002;2023-03-22T08:39:46;96942.81;;;15.04;76.71
36630;BME280;36256;42.154;23.002;2023-03-22T08:42:12;96949.34;;;15.10;78.46
36630;BME280;36256;42.154;23.002;2023-03-22T08:44:39;96946.97;;;14.88;79.11
36630;BME280;36256;42.154;23.002;2023-03-22T08:47:05;96958.50;;;14.70;79.56
36630;BME280;36256;42.154;23.002;2023-03-22T08:49:32;96932.94;;;14.45;79.06
36630;BME280;36256;42.154;23.002;2023-03-22T08:51:59;96951.03;;;14.38;80.52
36630;BME280;36256;42.154;23.002;2023-03-22T08:54:26;96944.19;;;14.59;81.15
36630;BME280;36256;42.154;23.002;2023-03-22T08:56:59;96957.84;;;14.61;80.87
36630;BME280;36256;42.154;23.002;2023-03-22T08:59:26;96946.75;;;14.72;80.54
36630;BME280;36256;42.154;23.002;2023-03-22T09:01:53;96947.84;;;15.49;79.05
36630;BME280;36256;42.154;23.002;2023-03-22T09:04:20;96950.84;;;16.37;75.23
36630;BME280;36256;42.154;23.002;2023-03-22T09:06:46;96951.09;;;16.34;75.43
36630;BME280;36256;42.154;23.002;2023-03-22T09:09:13;96918.41;;;15.61;73.38
36630;BME280;36256;42.154;23.002;2023-03-22T09:11:40;96951.19;;;15.48;73.75
36630;BME280;36256;42.154;23.002;2023-03-22T09:14:09;96949.38;;;15.50;75.06
36630;BME280;36256;42.154;23.002;2023-03-22T09:16:36;96945.13;;;15.20;74.33
36630;BME280;36256;42.154;23.002;2023-03-22T09:19:03;96951.75;;;14.97;75.77
36630;BME280;36256;42.154;23.002;2023-03-22T09:21:29;96953.13;;;14.72;76.53
36630;BME280;36256;42.154;23.002;2023-03-22T09:23:56;96961.72;;;14.49;78.43
36630;BME280;36256;42.154;23.002;2023-03-22T09:26:22;96960.38;;;14.59;80.15
36630;BME280;36256;42.154;23.002;2023-03-22T09:28:50;96964.28;;;14.61;80.07
36630;BME280;36256;42.154;23.002;2023-03-22T09:31:17;96956.88;;;14.49;80.15
36630;BME280;36256;42.154;23.002;2023-03-22T09:33:46;96957.88;;;14.46;80.25
36630;BME280;36256;42.154;23.002;2023-03-22T09:36:13;96976.84;;;14.46;79.84
36630;BME280;36256;42.154;23.002;2023-03-22T09:38:40;96972.00;;;14.32;81.85
36630;BME280;36256;42.154;23.002;2023-03-22T09:41:13;96977.16;;;14.33;82.23
36630;BME280;36256;42.154;23.002;2023-03-22T09:43:45;96979.06;;;14.27;82.01
36630;BME280;36256;42.154;23.002;2023-03-22T09:46:27;96971.63;;;14.00;82.28
36630;BME280;36256;42.154;23.002;2023-03-22T09:48:56;96978.06;;;14.01;81.71
36630;BME280;36256;42.154;23.002;2023-03-22T09:51:36;96970.59;;;14.12;83.46
36630;BME280;36256;42.154;23.002;2023-03-22T09:54:11;96965.41;;;14.26;84.51
36630;BME280;36256;42.154;23.002;2023-03-22T09:56:39;96969.94;;;14.32;84.05
36630;BME280;36256;42.154;23.002;2023-03-22T09:59:29;96973.72;;;14.44;84.13
36630;BME280;36256;42.154;23.002;2023-03-22T10:02:01;96978.41;;;14.96;85.26
36630;BME280;36256;42.154;23.002;2023-03-22T10:04:53;96962.19;;;15.11;82.16
36630;BME280;36256;42.154;23.002;2023-03-22T10:07:33;96950.16;;;14.96;80.06
36630;BME280;36256;42.154;23.002;2023-03-22T10:10:13;96953.28;;;14.98;78.18
36630;BME280;36256;42.154;23.002;2023-03-22T10:12:59;96940.66;;;14.79;80.21
36630;BME280;36256;42.154;23.002;2023-03-22T10:15:41;96956.22;;;14.89;79.92
36630;BME280;36256;42.154;23.002;2023-03-22T10:18:19;96959.19;;;14.80;77.84
36630;BME280;36256;42.154;23.002;2023-03-22T10:21:03;96959.47;;;14.82;79.45
36630;BME280;36256;42.154;23.002;2023-03-22T10:23:32;96962.91;;;14.71;79.69
36630;BME280;36256;42.154;23.002;2023-03-22T10:26:02;96953.94;;;14.73;80.06
36630;BME280;36256;42.154;23.002;2023-03-22T10:28:44;96975.56;;;14.76;81.25
36630;BME280;36256;42.154;23.002;2023-03-22T10:31:15;96955.50;;;14.74;79.68
36630;BME280;36256;42.154;23.002;2023-03-22T10:33:57;96963.47;;;14.75;78.84
36630;BME280;36256;42.154;23.002;2023-03-22T10:36:29;96962.28;;;14.82;79.47
36630;BME280;36256;42.154;23.002;2023-03-22T10:39:00;96954.28;;;14.80;78.24
36630;BME280;36256;42.154;23.002;2023-03-22T10:41:31;96948.50;;;14.69;76.31
36630;BME280;36256;42.154;23.002;2023-03-22T10:44:00;96950.81;;;14.71;77.14
36630;BME280;36256;42.154;23.002;2023-03-22T10:46:33;96969.97;;;14.81;75.85
36630;BME280;36256;42.154;23.002;2023-03-22T10:49:03;96977.28;;;14.88;74.24
36630;BME280;36256;42.154;23.002;2023-03-22T10:51:44;96968.00;;;14.87;76.10
36630;BME280;36256;42.154;23.002;2023-03-22T10:54:15;96970.06;;;14.87;76.00
36630;BME280;36256;42.154;23.002;2023-03-22T10:56:42;96959.75;;;14.84;74.34
36630;BME280;36256;42.154;23.002;2023-03-22T10:59:48;96965.44;;;14.69;76.08
36630;BME280;36256;42.154;23.002;2023-03-22T11:02:21;96964.34;;;14.67;76.43
36630;BME280;36256;42.154;23.002;2023-03-22T11:04:50;96963.50;;;14.61;75.25
36630;BME280;36256;42.154;23.002;2023-03-22T11:07:39;96967.69;;;14.51;78.32
36630;BME280;36256;42.154;23.002;2023-03-22T11:12:55;96959.72;;;14.35;79.11
36630;BME280;36256;42.154;23.002;2023-03-22T11:15:40;96945.59;;;14.35;79.87
36630;BME280;36256;42.154;23.002;2023-03-22T11:18:15;96962.72;;;14.46;79.19
36630;BME280;36256;42.154;23.002;2023-03-22T11:20:53;96965.28;;;14.29;80.00
36630;BME280;36256;42.154;23.002;2023-03-22T11:23:21;96957.88;;;14.32;78.79
36630;BME280;36256;42.154;23.002;2023-03-22T11:25:51;96952.22;;;14.46;77.87
36630;BME280;36256;42.154;23.002;2023-03-22T11:28:34;96951.72;;;14.48;79.22
36630;BME280;36256;42.154;23.002;2023-03-22T11:31:22;96943.94;;;14.43;77.94
36630;BME280;36256;42.154;23.002;2023-03-22T11:33:57;96933.13;;;14.27;78.35
36630;BME280;36256;42.154;23.002;2023-03-22T11:36:24;96949.75;;;14.25;78.14
36630;BME280;36256;42.154;23.002;2023-03-22T11:39:04;96956.88;;;14.35;78.84
36630;BME280;36256;42.154;23.002;2023-03-22T11:41:36;96944.53;;;14.32;79.62
36630;BME280;36256;42.154;23.002;2023-03-22T11:44:08;96958.63;;;14.47;77.78
36630;BME280;36256;42.154;23.002;2023-03-22T11:46:36;96945.78;;;14.60;73.87
36630;BME280;36256;42.154;23.002;2023-03-22T11:49:07;96951.38;;;14.75;75.07
36630;BME280;36256;42.154;23.002;2023-03-22T11:51:37;96937.34;;;14.80;71.00
36630;BME280;36256;42.154;23.002;2023-03-22T11:54:29;96945.38;;;14.67;72.80
36630;BME280;36256;42.154;23.002;2023-03-22T11:56:59;96942.44;;;14.62;72.18
36630;BME280;36256;42.154;23.002;2023-03-22T11:59:29;96941.78;;;14.67;73.63
36630;BME280;36256;42.154;23.002;2023-03-22T12:04:53;96944.50;;;14.61;73.84
36630;BME280;36256;42.154;23.002;2023-03-22T12:07:24;96949.16;;;14.64;72.94
36630;BME280;36256;42.154;23.002;2023-03-22T12:09:57;96953.34;;;14.69;76.11
36630;BME280;36256;42.154;23.002;2023-03-22T12:12:30;96936.19;;;14.72;74.99
36630;BME280;36256;42.154;23.002;2023-03-22T12:15:03;96950.22;;;14.81;74.92
36630;BME280;36256;42.154;23.002;2023-03-22T12:18:01;96947.31;;;14.76;71.56
36630;BME280;36256;42.154;23.002;2023-03-22T12:20:46;96940.19;;;14.66;70.68
36630;BME280;36256;42.154;23.002;2023-03-22T12:23:17;96937.22;;;14.55;71.16
36630;BME280;36256;42.154;23.002;2023-03-22T12:26:06;96937.22;;;14.55;72.95
36630;BME280;36256;42.154;23.002;2023-03-22T12:28:54;96937.22;;;14.55;71.76
36630;BME280;36256;42.154;23.002;2023-03-22T12:31:32;96931.00;;;14.51;72.69
36630;BME280;36256;42.154;23.002;2023-03-22T12:34:17;96949.47;;;14.52;75.58
36630;BME280;36256;42.154;23.002;2023-03-22T12:36:53;96949.28;;;14.55;73.94
36630;BME280;36256;42.154;23.002;2023-03-22T12:39:34;96937.91;;;14.50;71.63
36630;BME280;36256;42.154;23.002;2023-03-22T12:42:13;96943.94;;;14.43;75.63
36630;BME280;36256;42.154;23.002;2023-03-22T12:44:44;96942.28;;;14.51;75.36
36630;BME280;36256;42.154;23.002;2023-03-22T12:50:41;96936.03;;;14.47;73.19
36630;BME280;36256;42.154;23.002;2023-03-22T12:53:13;96931.28;;;14.53;75.80
36630;BME280;36256;42.154;23.002;2023-03-22T12:55:42;96931.56;;;14.55;76.18
36630;BME280;36256;42.154;23.002;2023-03-22T12:58:16;96930.56;;;14.58;75.84
36630;BME280;36256;42.154;23.002;2023-03-22T13:00:58;96915.00;;;14.62;77.74
36630;BME280;36256;42.154;23.002;2023-03-22T13:03:29;96925.13;;;14.89;76.72
36630;BME280;36256;42.154;23.002;2023-03-22T13:06:27;96925.59;;;15.02;73.31
36630;BME280;36256;42.154;23.002;2023-03-22T13:11:35;96917.69;;;15.06;76.85
36630;BME280;36256;42.154;23.002;2023-03-22T13:14:01;96917.00;;;15.11;71.01
36630;BME280;36256;42.154;23.002;2023-03-22T13:16:51;96911.97;;;15.21;73.69
36630;BME280;36256;42.154;23.002;2023-03-22T13:19:31;96917.72;;;15.26;72.22
36630;BME280;36256;42.154;23.002;2023-03-22T13:22:18;96918.28;;;15.30;74.61
36630;BME280;36256;42.154;23.002;2023-03-22T13:30:30;96927.72;;;15.07;73.98
36630;BME280;36256;42.154;23.002;2023-03-22T13:33:13;96928.97;;;15.06;74.84
36630;BME280;36256;42.154;23.002;2023-03-22T13:35:44;96920.44;;;15.21;76.60
36630;BME280;36256;42.154;23.002;2023-03-22T13:48:52;96907.31;;;15.38;74.70
36630;BME280;36256;42.154;23.002;2023-03-22T13:56:57;96904.38;;;15.47;72.82
36630;BME280;36256;42.154;23.002;2023-03-22T14:01:57;96889.16;;;15.64;70.09
36630;BME280;36256;42.154;23.002;2023-03-22T14:04:37;96901.41;;;15.56;70.96
36630;BME280;36256;42.154;23.002;2023-03-22T14:07:17;96881.97;;;15.43;70.30
36630;BME280;36256;42.154;23.002;2023-03-22T14:09:50;96898.63;;;15.61;67.02
36630;BME280;36256;42.154;23.002;2023-03-22T14:12:23;96892.84;;;15.50;67.82